createdAt,value
2023-11-18T00:01:55.193Z,10.10
2023-11-18T00:04:24.928Z,10.30
2023-11-18T00:06:55.829Z,10.80
2023-11-18T00:09:26.116Z,9.97
2023-11-18T00:11:55.719Z,9.63
2023-11-18T00:14:27.883Z,10.13
2023-11-18T00:16:57.589Z,10.60
2023-11-18T00:19:27.215Z,11.40
2023-11-18T00:21:57.197Z,10.77
2023-11-18T00:24:26.842Z,10.00
2023-11-18T00:26:56.460Z,11.03
2023-11-18T00:29:28.687Z,11.17
2023-11-18T00:31:58.452Z,10.30
2023-11-18T00:34:28.137Z,9.97
2023-11-18T00:36:58.605Z,10.17
2023-11-18T00:39:28.278Z,10.83
2023-11-18T00:41:58.124Z,11.20
2023-11-18T00:44:30.315Z,11.00
2023-11-18T00:47:00.097Z,11.27
2023-11-18T00:49:29.830Z,11.07
2023-11-18T00:51:59.698Z,11.13
2023-11-18T00:54:29.365Z,10.47
2023-11-18T00:56:58.969Z,11.00
2023-11-18T00:59:28.620Z,10.20
2023-11-18T01:01:58.285Z,11.03
2023-11-18T01:04:28.883Z,11.33
2023-11-18T01:06:59.138Z,11.13
2023-11-18T01:09:29.055Z,11.27
2023-11-18T01:12:07.862Z,11.20
2023-11-18T01:14:43.214Z,11.53
2023-11-18T01:17:15.187Z,11.07
2023-11-18T01:19:45.337Z,12.05
2023-11-18T01:22:15.081Z,11.87
2023-11-18T01:24:45.056Z,12.33
2023-11-18T01:27:14.622Z,11.50
2023-11-18T01:29:48.217Z,11.27
2023-11-18T01:32:18.901Z,11.87
2023-11-18T01:34:51.692Z,12.43
2023-11-18T01:37:22.780Z,12.20
2023-11-18T01:39:52.417Z,11.93
2023-11-18T01:42:22.229Z,15.40
2023-11-18T01:44:56.371Z,14.40
2023-11-18T01:47:26.056Z,14.37
2023-11-18T01:49:56.768Z,15.23
2023-11-18T01:52:27.735Z,13.82
2023-11-18T01:54:58.968Z,16.43
2023-11-18T01:57:28.987Z,15.80
2023-11-18T02:00:01.341Z,16.10
2023-11-18T02:02:31.123Z,15.75
2023-11-18T02:05:02.415Z,16.33
2023-11-18T02:07:32.598Z,16.43
2023-11-18T02:10:02.409Z,16.27
2023-11-18T02:12:42.619Z,17.40
2023-11-18T02:15:15.781Z,16.63
2023-11-18T02:17:48.217Z,16.10
2023-11-18T02:20:22.328Z,16.20
2023-11-18T02:22:52.666Z,16.00
2023-11-18T02:25:22.733Z,16.27
2023-11-18T02:27:54.941Z,16.57
2023-11-18T02:30:24.812Z,16.38
2023-11-18T02:33:00.449Z,15.00
2023-11-18T02:35:36.555Z,16.50
2023-11-18T02:38:06.816Z,15.47
2023-11-18T02:40:40.475Z,15.83
2023-11-18T02:43:14.170Z,14.87
2023-11-18T02:45:45.845Z,15.70
2023-11-18T02:48:16.351Z,14.70
2023-11-18T02:50:47.999Z,13.60
2023-11-18T02:53:17.750Z,14.60
2023-11-18T02:55:47.623Z,16.57
2023-11-18T02:58:19.897Z,14.63
2023-11-18T03:00:49.479Z,14.73
2023-11-18T03:03:20.099Z,13.67
2023-11-18T03:05:51.202Z,14.03
2023-11-18T03:08:20.857Z,14.03
2023-11-18T03:10:53.896Z,13.07
2023-11-18T03:13:26.304Z,14.13
2023-11-18T03:15:56.495Z,13.70
2023-11-18T03:18:27.137Z,13.80
2023-11-18T03:20:56.766Z,13.70
2023-11-18T03:23:26.433Z,15.50
2023-11-18T03:25:57.850Z,14.57
2023-11-18T03:28:30.130Z,12.93
2023-11-18T03:31:00.291Z,14.57
2023-11-18T03:33:31.324Z,15.37
2023-11-18T03:36:00.976Z,15.73
2023-11-18T03:38:31.518Z,14.13
2023-11-18T03:41:01.148Z,16.17
2023-11-18T03:43:33.435Z,16.23
2023-11-18T03:46:03.276Z,17.23
2023-11-18T03:48:32.909Z,17.97
2023-11-18T03:51:02.596Z,16.70
2023-11-18T03:53:35.034Z,16.87
2023-11-18T03:56:06.152Z,17.85
2023-11-18T03:58:38.496Z,14.93
2023-11-18T04:01:12.369Z,14.88
2023-11-18T04:03:43.287Z,15.83
2023-11-18T04:06:15.219Z,16.80
2023-11-18T04:08:47.935Z,15.90
2023-11-18T04:11:17.923Z,15.32
2023-11-18T04:13:50.264Z,14.13
2023-11-18T04:16:20.942Z,15.80
2023-11-18T04:18:51.205Z,14.93
2023-11-18T04:21:20.836Z,16.63
2023-11-18T04:23:50.419Z,15.20
2023-11-18T04:26:20.039Z,15.10
2023-11-18T04:28:52.258Z,16.00
2023-11-18T04:31:22.726Z,15.25
2023-11-18T04:33:52.400Z,15.13
2023-11-18T04:36:23.316Z,14.57
2023-11-18T04:38:52.908Z,14.77
2023-11-18T04:41:24.459Z,15.03
2023-11-18T04:43:56.860Z,16.03
2023-11-18T04:46:27.178Z,14.60
2023-11-18T04:48:57.579Z,16.13
2023-11-18T04:51:27.320Z,15.20
2023-11-18T04:53:57.009Z,16.53
2023-11-18T04:56:26.706Z,15.50
2023-11-18T04:58:58.963Z,16.53
2023-11-18T05:01:28.621Z,17.35
2023-11-18T05:03:58.682Z,15.77
2023-11-18T05:06:28.364Z,16.70
2023-11-18T05:08:57.998Z,15.93
2023-11-18T05:11:27.609Z,15.27
2023-11-18T05:14:00.454Z,18.77
2023-11-18T05:16:30.170Z,15.53
2023-11-18T05:18:59.888Z,16.07
2023-11-18T05:21:29.558Z,15.87
2023-11-18T05:23:59.228Z,17.03
2023-11-18T05:26:28.820Z,15.10
2023-11-18T05:29:01.030Z,15.47
2023-11-18T05:31:33.323Z,15.50
2023-11-18T05:34:04.473Z,16.63
2023-11-18T05:36:38.888Z,16.43
2023-11-18T05:39:08.882Z,16.17
2023-11-18T05:41:41.133Z,15.63
2023-11-18T05:44:18.820Z,16.70
2023-11-18T05:46:49.090Z,15.33
2023-11-18T05:49:19.204Z,15.77
2023-11-18T05:51:49.461Z,16.17
2023-11-18T05:54:19.082Z,16.93
2023-11-18T05:56:48.721Z,16.27
2023-11-18T05:59:20.992Z,15.90
2023-11-18T06:01:50.994Z,18.65
2023-11-18T06:04:20.654Z,16.53
2023-11-18T06:06:50.295Z,16.87
2023-11-18T06:09:22.344Z,17.03
2023-11-18T06:11:52.335Z,16.70
2023-11-18T06:14:24.771Z,16.60
2023-11-18T06:16:54.468Z,17.20
2023-11-18T06:19:24.659Z,17.63
2023-11-18T06:21:54.261Z,17.83
2023-11-18T06:24:23.857Z,17.87
2023-11-18T06:26:53.414Z,16.93
2023-11-18T06:29:25.661Z,17.27
2023-11-18T06:31:55.324Z,16.40
2023-11-18T06:34:24.934Z,15.80
2023-11-18T06:36:54.534Z,15.80
2023-11-18T06:39:30.675Z,16.77
2023-11-18T06:42:00.380Z,18.47
2023-11-18T06:44:32.533Z,16.70
2023-11-18T06:47:04.657Z,18.13
2023-11-18T06:49:35.729Z,18.45
2023-11-18T06:52:06.408Z,17.07
2023-11-18T06:54:36.052Z,16.83
2023-11-18T06:57:05.912Z,16.73
2023-11-18T06:59:38.740Z,18.70
2023-11-18T07:04:39.825Z,17.23
2023-11-18T07:07:10.184Z,19.07
2023-11-18T07:09:40.674Z,17.23
2023-11-18T07:12:10.502Z,16.90
2023-11-18T07:14:42.647Z,17.80
2023-11-18T07:17:12.392Z,16.88
2023-11-18T07:19:42.067Z,17.57
2023-11-18T07:22:11.703Z,17.73
2023-11-18T07:24:42.249Z,18.37
2023-11-18T07:27:12.714Z,18.43
2023-11-18T07:29:46.443Z,19.90
2023-11-18T07:32:16.128Z,19.17
2023-11-18T07:34:46.203Z,19.03
2023-11-18T07:37:15.983Z,19.17
2023-11-18T07:39:49.740Z,20.07
2023-11-18T07:42:19.407Z,19.53
2023-11-18T07:44:52.856Z,20.60
2023-11-18T07:47:22.799Z,18.77
2023-11-18T07:49:52.422Z,18.80
2023-11-18T07:52:22.033Z,18.37
2023-11-18T07:54:53.664Z,18.10
2023-11-18T07:57:25.004Z,19.40
2023-11-18T07:59:57.554Z,18.97
2023-11-18T08:02:27.275Z,17.42
2023-11-18T08:04:57.972Z,19.13
2023-11-18T08:07:27.832Z,18.00
2023-11-18T08:09:58.905Z,19.10
2023-11-18T08:12:26.412Z,18.10
2023-11-18T08:14:59.199Z,20.00
2023-11-18T08:20:01.154Z,18.80
2023-11-18T08:22:31.434Z,19.30
2023-11-18T08:25:01.054Z,19.90
2023-11-18T08:27:31.548Z,18.77
2023-11-18T08:30:06.909Z,18.10
2023-11-18T08:32:36.687Z,16.93
2023-11-18T08:35:07.274Z,17.20
2023-11-18T08:37:37.232Z,16.70
2023-11-18T08:40:07.818Z,17.57
2023-11-18T08:42:37.688Z,16.53
2023-11-18T08:45:15.704Z,17.13
2023-11-18T08:47:47.293Z,16.57
2023-11-18T08:50:18.177Z,17.20
2023-11-18T08:52:48.844Z,16.30
2023-11-18T08:55:22.468Z,16.97
2023-11-18T08:57:59.638Z,18.83
2023-11-18T09:00:51.629Z,18.00
2023-11-18T09:03:26.087Z,16.67
2023-11-18T09:06:05.582Z,17.07
2023-11-18T09:08:36.617Z,16.83
2023-11-18T09:11:09.121Z,16.53
2023-11-18T09:13:40.185Z,16.80
2023-11-18T09:16:12.867Z,18.50
2023-11-18T09:18:46.344Z,17.73
2023-11-18T09:21:20.898Z,17.80
2023-11-18T09:23:51.412Z,18.10
2023-11-18T09:26:22.965Z,15.77
2023-11-18T09:28:54.140Z,15.83
2023-11-18T09:31:26.999Z,15.37
2023-11-18T09:33:59.114Z,17.90
2023-11-18T09:36:30.155Z,16.40
2023-11-18T09:39:00.641Z,16.07
2023-11-18T09:41:30.564Z,15.67
2023-11-18T09:44:03.924Z,16.47
2023-11-18T09:46:42.182Z,16.93
2023-11-18T09:49:27.216Z,16.47
2023-11-18T09:52:01.834Z,15.73
2023-11-18T09:54:39.255Z,15.60
2023-11-18T09:57:18.758Z,16.17
2023-11-18T09:59:56.315Z,15.40
2023-11-18T10:02:30.425Z,16.57
2023-11-18T10:05:02.751Z,15.60
2023-11-18T10:07:36.403Z,15.15
2023-11-18T10:10:15.560Z,15.83
2023-11-18T10:12:47.282Z,13.90
2023-11-18T10:15:18.872Z,13.67
2023-11-18T10:18:01.267Z,13.03
2023-11-18T10:20:52.293Z,13.43
2023-11-18T10:23:23.649Z,12.07
2023-11-18T10:25:58.180Z,12.47
2023-11-18T10:28:33.625Z,12.20
2023-11-18T10:31:07.005Z,11.03
2023-11-18T10:33:42.904Z,11.27
2023-11-18T10:36:23.924Z,11.33
2023-11-18T10:38:57.615Z,10.40
2023-11-18T10:41:27.672Z,9.97
2023-11-18T10:44:10.948Z,9.77
2023-11-18T10:46:41.618Z,8.90
2023-11-18T10:49:13.954Z,9.53
2023-11-18T10:51:43.666Z,9.88
2023-11-18T10:54:18.647Z,8.70
2023-11-18T10:56:57.775Z,8.40
2023-11-18T10:59:28.120Z,7.77
2023-11-18T11:01:59.419Z,8.27
2023-11-18T11:04:46.992Z,6.73
2023-11-18T11:07:20.361Z,8.13
2023-11-18T11:09:50.898Z,7.00
2023-11-18T11:12:26.007Z,7.87
2023-11-18T11:15:05.656Z,7.37
2023-11-18T11:17:39.296Z,7.37
2023-11-18T11:20:19.145Z,7.30
2023-11-18T11:23:05.243Z,6.17
2023-11-18T11:25:45.279Z,5.37
2023-11-18T11:28:21.091Z,4.60
2023-11-18T11:30:59.515Z,4.53
2023-11-18T11:33:38.156Z,4.93
2023-11-18T11:36:17.562Z,6.83
2023-11-18T11:38:48.452Z,5.33
2023-11-18T11:41:26.642Z,5.03
2023-11-18T11:44:00.411Z,5.23
2023-11-18T11:46:36.151Z,4.80
2023-11-18T11:49:16.634Z,5.17
2023-11-18T11:51:55.309Z,6.07
2023-11-18T11:54:30.425Z,5.07
2023-11-18T11:57:07.205Z,5.50
2023-11-18T11:59:58.328Z,5.57
2023-11-18T12:02:30.840Z,5.50
2023-11-18T12:05:07.995Z,5.00
2023-11-18T12:07:44.152Z,5.43
2023-11-18T12:10:22.698Z,5.70
2023-11-18T12:12:53.529Z,5.23
2023-11-18T12:15:56.128Z,5.37
2023-11-18T12:18:26.362Z,4.97
2023-11-18T12:20:58.907Z,5.93
2023-11-18T12:23:31.977Z,6.10
2023-11-18T12:26:04.362Z,6.33
2023-11-18T12:28:36.555Z,6.15
2023-11-18T12:31:18.236Z,7.28
2023-11-18T12:34:11.209Z,6.37
2023-11-18T12:37:14.132Z,6.57
2023-11-18T12:40:14.625Z,6.93
2023-11-18T12:43:06.175Z,6.70
2023-11-18T12:46:09.779Z,6.47
2023-11-18T12:48:47.658Z,7.28
2023-11-18T12:51:20.793Z,7.00
2023-11-18T12:53:54.997Z,7.10
2023-11-18T12:56:25.481Z,7.63
2023-11-18T12:58:57.668Z,6.17
2023-11-18T13:01:28.657Z,6.55
2023-11-18T13:03:58.496Z,6.20
2023-11-18T13:06:30.049Z,6.50
2023-11-18T13:09:00.225Z,6.37
2023-11-18T13:11:32.707Z,6.93
2023-11-18T13:14:06.418Z,6.30
2023-11-18T13:16:36.766Z,6.40
2023-11-18T13:19:06.591Z,6.53
2023-11-18T13:21:37.996Z,6.00
2023-11-18T13:24:09.738Z,6.47
2023-11-18T13:26:39.533Z,6.20
2023-11-18T13:29:11.847Z,5.63
2023-11-18T13:31:41.762Z,6.32
2023-11-18T13:34:11.973Z,6.63
2023-11-18T13:36:41.967Z,6.30
2023-11-18T13:39:17.997Z,5.90
2023-11-18T13:41:49.666Z,6.03
2023-11-18T13:44:40.118Z,6.13
2023-11-18T13:47:12.982Z,6.03
2023-11-18T13:49:44.067Z,5.77
2023-11-18T13:52:17.058Z,5.80
2023-11-18T13:54:46.805Z,5.30
2023-11-18T13:57:16.636Z,5.97
2023-11-18T13:59:48.836Z,5.10
2023-11-18T14:02:18.830Z,5.50
2023-11-18T14:04:49.790Z,6.50
2023-11-18T14:07:19.999Z,5.33
2023-11-18T14:09:51.363Z,5.27
2023-11-18T14:12:21.030Z,6.23
2023-11-18T14:14:54.259Z,5.37
2023-11-18T14:17:23.947Z,5.60
2023-11-18T14:19:53.700Z,5.47
2023-11-18T14:22:23.407Z,5.03
2023-11-18T14:24:53.674Z,4.70
2023-11-18T14:27:23.377Z,5.40
2023-11-18T14:29:55.563Z,5.40
2023-11-18T14:32:25.236Z,4.75
2023-11-18T14:34:55.378Z,5.70
2023-11-18T14:37:25.015Z,4.83
2023-11-18T14:39:55.156Z,5.57
2023-11-18T14:42:24.989Z,4.97
2023-11-18T14:44:58.178Z,4.90
2023-11-18T14:47:27.926Z,4.83
2023-11-18T14:49:57.561Z,4.57
2023-11-18T14:52:27.139Z,4.40
2023-11-18T14:54:56.695Z,4.20
2023-11-18T14:57:26.240Z,5.10
2023-11-18T14:59:59.941Z,5.20
2023-11-18T15:02:29.964Z,5.33
2023-11-18T15:04:59.570Z,5.00
2023-11-18T15:07:29.242Z,5.20
2023-11-18T15:09:58.857Z,5.60
2023-11-18T15:12:28.485Z,5.53
2023-11-18T15:15:01.016Z,5.77
2023-11-18T15:17:43.765Z,6.38
2023-11-18T15:20:17.284Z,5.80
2023-11-18T15:22:46.871Z,5.63
2023-11-18T15:25:18.654Z,6.67
2023-11-18T15:27:48.896Z,5.70
2023-11-18T15:30:23.077Z,5.33
2023-11-18T15:32:53.250Z,5.87
2023-11-18T15:35:23.589Z,5.30
2023-11-18T15:37:54.047Z,6.53
2023-11-18T15:40:26.949Z,5.63
2023-11-18T15:42:57.185Z,6.57
2023-11-18T15:45:29.659Z,6.30
2023-11-18T15:48:00.724Z,6.47
2023-11-18T15:50:30.893Z,6.67
2023-11-18T15:53:00.620Z,6.67
2023-11-18T15:55:30.545Z,6.37
2023-11-18T15:58:00.162Z,6.63
2023-11-18T16:00:33.284Z,6.40
2023-11-18T16:03:05.984Z,7.10
2023-11-18T16:05:36.408Z,7.82
2023-11-18T16:08:09.003Z,8.70
2023-11-18T16:10:38.970Z,8.13
2023-11-18T16:13:08.776Z,6.90
2023-11-18T16:15:42.317Z,8.13
2023-11-18T16:18:11.933Z,7.67
2023-11-18T16:20:41.564Z,6.90
2023-11-18T16:23:11.227Z,6.70
2023-11-18T16:25:40.870Z,7.47
2023-11-18T16:28:14.064Z,6.80
2023-11-18T16:30:46.257Z,8.13
2023-11-18T16:33:16.022Z,7.50
2023-11-18T16:35:45.683Z,7.40
2023-11-18T16:38:15.317Z,6.93
2023-11-18T16:40:44.935Z,7.37
2023-11-18T16:43:14.503Z,7.43
2023-11-18T16:45:48.619Z,7.60
2023-11-18T16:48:18.983Z,7.33
2023-11-18T16:50:48.638Z,6.80
2023-11-18T16:53:19.366Z,7.60
2023-11-18T16:55:49.032Z,7.30
2023-11-18T16:58:18.588Z,7.13
2023-11-18T17:00:52.493Z,7.33
2023-11-18T17:03:22.212Z,8.00
2023-11-18T17:05:51.903Z,8.07
2023-11-18T17:08:21.529Z,8.53
2023-11-18T17:10:55.089Z,8.83
2023-11-18T17:13:27.368Z,7.87
2023-11-18T17:16:00.099Z,8.50
2023-11-18T17:21:00.134Z,7.50
2023-11-18T17:23:32.345Z,7.80
2023-11-18T17:26:01.938Z,7.43
2023-11-18T17:28:31.513Z,6.20
2023-11-18T17:31:03.910Z,7.27
2023-11-18T17:33:33.552Z,6.55
2023-11-18T17:36:03.177Z,6.60
2023-11-18T17:38:34.368Z,6.60
2023-11-18T17:41:04.120Z,6.23
2023-11-18T17:43:33.707Z,5.43
2023-11-18T17:46:06.566Z,5.67
2023-11-18T17:51:05.589Z,5.90
2023-11-18T17:53:35.223Z,4.80
2023-11-18T17:56:06.770Z,4.60
2023-11-18T17:58:36.442Z,5.60
2023-11-18T18:03:49.657Z,4.50
2023-11-18T18:06:19.270Z,5.00
2023-11-18T18:08:48.823Z,5.00
2023-11-18T18:11:20.556Z,5.70
2023-11-18T18:13:50.123Z,5.20
2023-11-18T18:16:22.291Z,4.90
2023-11-18T18:18:51.875Z,4.93
2023-11-18T18:21:21.456Z,5.37
2023-11-18T18:23:51.549Z,5.20
2023-11-18T18:26:21.386Z,4.67
2023-11-18T18:28:50.992Z,5.60
2023-11-18T18:31:23.156Z,4.93
2023-11-18T18:33:52.751Z,4.82
2023-11-18T18:36:22.377Z,4.83
2023-11-18T18:38:51.952Z,4.93
2023-11-18T18:41:21.550Z,5.47
2023-11-18T18:43:51.281Z,4.90
2023-11-18T18:46:23.504Z,5.23
2023-11-18T18:48:53.582Z,4.72
2023-11-18T18:51:23.834Z,4.97
2023-11-18T18:53:53.489Z,4.40
2023-11-18T18:56:24.417Z,4.37
2023-11-18T18:58:54.074Z,4.33
2023-11-18T19:01:27.927Z,4.17
2023-11-18T19:03:58.130Z,4.67
2023-11-18T19:06:29.000Z,3.93
2023-11-18T19:08:58.585Z,3.53
2023-11-18T19:11:28.151Z,4.10
2023-11-18T19:13:57.717Z,4.07
2023-11-18T19:16:30.033Z,3.70
2023-11-18T19:18:59.968Z,3.45
2023-11-18T19:21:30.478Z,3.50
2023-11-18T19:24:00.686Z,3.50
2023-11-18T19:26:30.306Z,3.13
2023-11-18T19:29:00.172Z,3.20
2023-11-18T19:31:32.372Z,3.33
2023-11-18T19:34:02.498Z,3.15
2023-11-18T19:36:32.281Z,2.90
2023-11-18T19:39:01.975Z,3.10
2023-11-18T19:41:31.666Z,2.50
2023-11-18T19:44:02.476Z,2.80
2023-11-18T19:46:34.673Z,2.30
2023-11-18T19:49:06.251Z,2.95
2023-11-18T19:51:35.850Z,3.07
2023-11-18T19:54:05.449Z,2.70
2023-11-18T19:56:35.144Z,2.60
2023-11-18T19:59:05.973Z,2.23
2023-11-18T20:01:38.455Z,2.43
2023-11-18T20:04:08.648Z,2.63
2023-11-18T20:06:38.551Z,3.10
2023-11-18T20:09:09.069Z,2.63
2023-11-18T20:11:38.679Z,2.57
2023-11-18T20:14:08.522Z,2.03
2023-11-18T20:16:40.678Z,2.23
2023-11-18T20:19:10.816Z,2.10
2023-11-18T20:21:41.072Z,2.43
2023-11-18T20:24:11.667Z,2.13
2023-11-18T20:26:41.491Z,2.53
2023-11-18T20:29:11.222Z,3.10
2023-11-18T20:31:43.449Z,2.50
2023-11-18T20:34:14.392Z,2.10
2023-11-18T20:36:45.114Z,2.00
2023-11-18T20:39:18.837Z,2.03
2023-11-18T20:41:49.934Z,2.10
2023-11-18T20:44:19.683Z,2.00
2023-11-18T20:46:52.167Z,1.93
2023-11-18T20:49:21.815Z,1.98
2023-11-18T20:51:51.550Z,1.73
2023-11-18T20:54:21.128Z,1.73
2023-11-18T20:56:50.694Z,2.20
2023-11-18T20:59:21.174Z,1.90
2023-11-18T21:01:53.597Z,2.00
2023-11-18T21:04:23.364Z,1.90
2023-11-18T21:06:53.133Z,1.53
2023-11-18T21:09:23.097Z,2.07
2023-11-18T21:11:54.910Z,2.13
2023-11-18T21:14:45.429Z,2.20
2023-11-18T21:17:17.609Z,2.00
2023-11-18T21:19:47.357Z,1.70
2023-11-18T21:22:19.271Z,1.83
2023-11-18T21:24:49.630Z,1.60
2023-11-18T21:27:19.172Z,1.43
2023-11-18T21:29:49.421Z,2.23
2023-11-18T21:32:23.093Z,1.60
2023-11-18T21:34:52.886Z,2.00
2023-11-18T21:37:22.436Z,1.80
2023-11-18T21:39:52.014Z,1.27
2023-11-18T21:42:22.772Z,1.30
2023-11-18T21:44:53.239Z,1.40
2023-11-18T21:47:26.798Z,1.40
2023-11-18T21:49:56.908Z,1.70
2023-11-18T21:52:27.040Z,1.30
2023-11-18T21:54:57.178Z,1.23
2023-11-18T21:57:26.731Z,1.27
2023-11-18T21:59:56.637Z,1.30
2023-11-18T22:02:28.834Z,1.10
2023-11-18T22:04:59.450Z,1.40
2023-11-18T22:07:29.024Z,1.20
2023-11-18T22:09:58.700Z,1.30
2023-11-18T22:12:28.299Z,1.17
2023-11-18T22:14:58.386Z,1.03
2023-11-18T22:17:30.579Z,1.07
2023-11-18T22:20:00.186Z,1.05
2023-11-18T22:25:02.500Z,1.10
2023-11-18T22:27:35.179Z,1.23
2023-11-18T22:32:39.863Z,1.00
2023-11-18T22:35:10.775Z,0.85
2023-11-18T22:37:40.441Z,1.10
2023-11-18T22:40:17.298Z,1.20
2023-11-18T22:42:48.368Z,1.30
2023-11-18T22:45:21.161Z,1.20
2023-11-18T22:52:58.959Z,0.90
2023-11-18T22:55:28.686Z,1.00
2023-11-18T22:57:58.722Z,0.87
2023-11-18T23:00:39.694Z,1.10
2023-11-18T23:03:12.095Z,1.00
2023-11-18T23:05:42.186Z,1.70
2023-11-18T23:08:17.936Z,1.50
2023-11-18T23:10:48.510Z,1.10
2023-11-18T23:13:20.557Z,1.20
2023-11-18T23:15:50.588Z,1.33
2023-11-18T23:18:23.858Z,1.00
2023-11-18T23:20:53.521Z,1.17
2023-11-18T23:23:23.172Z,1.53
2023-11-18T23:25:52.787Z,1.17
2023-11-18T23:28:22.360Z,1.13
2023-11-18T23:30:53.577Z,1.40
2023-11-18T23:33:25.776Z,1.37
2023-11-18T23:35:56.272Z,1.25
2023-11-18T23:38:27.273Z,1.30
2023-11-18T23:40:57.051Z,1.00
2023-11-18T23:43:26.670Z,1.50
2023-11-18T23:45:57.196Z,1.20
2023-11-18T23:48:30.293Z,1.40
2023-11-18T23:50:59.886Z,1.30
2023-11-18T23:53:29.463Z,1.40
2023-11-18T23:55:59.470Z,1.30
2023-11-18T23:58:29.140Z,1.77
